createdAt,value
2023-10-20T00:00:08.912Z,51.40
2023-10-20T00:02:35.841Z,46.53
2023-10-20T00:05:06.381Z,55.85
2023-10-20T00:07:33.047Z,54.40
2023-10-20T00:10:01.059Z,57.10
2023-10-20T00:12:28.104Z,50.22
2023-10-20T00:14:54.846Z,53.55
2023-10-20T00:17:21.501Z,51.80
2023-10-20T00:19:48.992Z,56.83
2023-10-20T00:22:16.340Z,58.95
2023-10-20T00:24:45.294Z,56.38
2023-10-20T00:27:14.925Z,49.35
2023-10-20T00:29:42.155Z,54.08
2023-10-20T00:32:11.688Z,67.22
2023-10-20T00:34:41.068Z,56.00
2023-10-20T00:37:07.800Z,54.70
2023-10-20T00:39:36.132Z,59.10
2023-10-20T00:42:03.412Z,55.92
2023-10-20T00:44:30.523Z,55.13
2023-10-20T00:46:58.271Z,50.63
2023-10-20T00:49:24.959Z,56.53
2023-10-20T00:51:51.786Z,53.50
2023-10-20T00:54:18.525Z,55.58
2023-10-20T00:56:46.016Z,57.95
2023-10-20T00:59:12.813Z,52.83
2023-10-20T01:01:39.531Z,52.70
2023-10-20T01:04:07.185Z,55.25
2023-10-20T01:06:34.384Z,58.58
2023-10-20T01:09:01.086Z,53.83
2023-10-20T01:11:27.777Z,56.17
2023-10-20T01:13:54.406Z,56.70
2023-10-20T01:16:21.070Z,55.65
2023-10-20T01:18:47.729Z,54.75
2023-10-20T01:21:14.450Z,57.58
2023-10-20T01:23:41.531Z,60.03
2023-10-20T01:26:09.222Z,56.38
2023-10-20T01:28:35.966Z,58.08
2023-10-20T01:31:02.724Z,56.88
2023-10-20T01:33:29.437Z,57.75
2023-10-20T01:35:56.149Z,56.72
2023-10-20T01:38:22.851Z,57.72
2023-10-20T01:40:49.519Z,59.92
2023-10-20T01:43:16.283Z,60.65
2023-10-20T01:45:42.942Z,60.80
2023-10-20T01:48:10.327Z,55.47
2023-10-20T01:50:38.327Z,57.40
2023-10-20T01:53:05.437Z,63.42
2023-10-20T01:55:32.281Z,57.10
2023-10-20T01:57:59.986Z,62.40
2023-10-20T02:00:26.746Z,56.80
2023-10-20T02:02:53.541Z,51.50
2023-10-20T02:05:20.260Z,57.38
2023-10-20T02:07:46.876Z,57.25
2023-10-20T02:10:13.537Z,54.35
2023-10-20T02:12:40.242Z,55.15
2023-10-20T02:15:08.940Z,59.58
2023-10-20T02:17:36.373Z,54.25
2023-10-20T02:20:04.257Z,52.85
2023-10-20T02:22:30.931Z,58.25
2023-10-20T02:24:57.501Z,58.65
2023-10-20T02:27:24.144Z,58.53
2023-10-20T02:29:50.825Z,55.53
2023-10-20T02:32:17.448Z,57.40
2023-10-20T02:34:44.104Z,55.88
2023-10-20T02:37:13.334Z,53.13
2023-10-20T02:39:40.444Z,59.10
2023-10-20T02:42:07.097Z,63.78
2023-10-20T02:44:33.889Z,56.35
2023-10-20T02:47:00.783Z,59.50
2023-10-20T02:49:27.443Z,59.40
2023-10-20T02:51:54.046Z,56.35
2023-10-20T02:54:20.841Z,58.90
2023-10-20T02:56:47.464Z,50.70
2023-10-20T02:59:14.228Z,56.90
2023-10-20T03:01:41.406Z,55.55
2023-10-20T03:04:08.330Z,56.40
2023-10-20T03:06:35.294Z,56.67
2023-10-20T03:09:02.083Z,56.63
2023-10-20T03:11:28.829Z,56.80
2023-10-20T03:13:55.664Z,57.65
2023-10-20T03:16:23.090Z,57.72
2023-10-20T03:18:49.727Z,56.88
2023-10-20T03:21:16.486Z,51.03
2023-10-20T03:23:44.965Z,49.47
2023-10-20T03:26:13.500Z,56.95
2023-10-20T03:28:40.895Z,59.50
2023-10-20T03:31:08.522Z,54.47
2023-10-20T03:33:35.188Z,54.60
2023-10-20T03:36:05.093Z,55.30
2023-10-20T03:38:32.336Z,57.85
2023-10-20T03:41:08.917Z,54.25
2023-10-20T03:43:36.898Z,55.13
2023-10-20T03:46:05.494Z,54.17
2023-10-20T03:48:34.682Z,54.28
2023-10-20T03:51:01.533Z,58.63
2023-10-20T03:53:28.485Z,57.63
2023-10-20T03:56:13.889Z,55.70
2023-10-20T03:58:43.367Z,54.63
2023-10-20T04:01:10.481Z,59.72
2023-10-20T04:03:53.627Z,51.45
2023-10-20T04:06:23.638Z,54.72
2023-10-20T04:08:50.487Z,55.63
2023-10-20T04:11:17.247Z,60.90
2023-10-20T04:13:43.840Z,53.90
2023-10-20T04:16:14.858Z,59.42
2023-10-20T04:18:42.945Z,62.10
2023-10-20T04:21:12.790Z,60.97
2023-10-20T04:23:39.858Z,56.90
2023-10-20T04:26:17.247Z,61.58
2023-10-20T04:31:36.591Z,66.88
2023-10-20T04:34:23.963Z,63.28
2023-10-20T04:37:09.155Z,56.70
2023-10-20T04:39:54.611Z,58.20
2023-10-20T04:42:36.437Z,59.55
2023-10-20T04:45:22.309Z,61.22
2023-10-20T04:48:12.113Z,67.43
2023-10-20T04:50:53.472Z,57.60
2023-10-20T04:53:38.656Z,57.47
2023-10-20T04:56:17.621Z,60.30
2023-10-20T04:58:50.407Z,63.88
2023-10-20T05:01:40.187Z,65.00
2023-10-20T05:04:36.245Z,62.13
2023-10-20T05:07:11.446Z,57.47
2023-10-20T05:09:51.154Z,62.30
2023-10-20T05:12:17.732Z,58.78
2023-10-20T05:14:44.985Z,57.50
2023-10-20T05:17:15.460Z,59.70
2023-10-20T05:19:42.205Z,66.15
2023-10-20T05:22:10.465Z,58.70
2023-10-20T05:24:37.252Z,59.47
2023-10-20T05:27:04.964Z,60.67
2023-10-20T05:29:32.101Z,57.30
2023-10-20T05:31:59.649Z,54.78
2023-10-20T05:34:26.379Z,54.40
2023-10-20T05:36:54.577Z,57.97
2023-10-20T05:39:22.727Z,56.75
2023-10-20T05:41:49.534Z,62.05
2023-10-20T05:44:19.261Z,59.20
2023-10-20T05:46:46.590Z,56.33
2023-10-20T05:49:13.237Z,63.30
2023-10-20T05:51:40.148Z,55.95
2023-10-20T05:54:06.940Z,55.08
2023-10-20T05:56:33.579Z,60.13
2023-10-20T05:59:00.396Z,58.08
2023-10-20T06:01:27.050Z,54.70
2023-10-20T06:03:53.843Z,56.67
2023-10-20T06:06:20.536Z,56.53
2023-10-20T06:08:47.165Z,54.13
2023-10-20T06:11:14.093Z,52.90
2023-10-20T06:13:40.788Z,57.63
2023-10-20T06:16:12.159Z,56.63
2023-10-20T06:18:43.820Z,53.78
2023-10-20T06:21:15.690Z,56.70
2023-10-20T06:23:42.757Z,50.75
2023-10-20T06:26:09.902Z,54.28
2023-10-20T06:28:36.538Z,53.13
2023-10-20T06:31:22.014Z,53.17
2023-10-20T06:33:49.929Z,50.40
2023-10-20T06:36:23.695Z,60.03
2023-10-20T06:38:50.482Z,51.85
2023-10-20T06:41:17.347Z,47.47
2023-10-20T06:43:47.844Z,55.47
2023-10-20T06:46:15.512Z,50.90
2023-10-20T06:48:42.370Z,50.70
2023-10-20T06:51:09.374Z,51.28
2023-10-20T06:53:36.244Z,50.22
2023-10-20T06:56:15.496Z,38.97
2023-10-20T06:58:44.161Z,45.13
2023-10-20T07:01:11.353Z,46.47
2023-10-20T07:03:38.344Z,41.88
2023-10-20T07:06:08.614Z,37.80
2023-10-20T07:08:36.477Z,36.65
2023-10-20T07:11:05.123Z,37.95
2023-10-20T07:13:35.868Z,38.47
2023-10-20T07:16:02.935Z,36.47
2023-10-20T07:18:33.276Z,28.50
2023-10-20T07:21:00.139Z,30.60
2023-10-20T07:23:27.856Z,28.00
2023-10-20T07:25:54.802Z,28.27
2023-10-20T07:28:23.124Z,28.90
2023-10-20T07:30:50.432Z,29.05
2023-10-20T07:33:17.340Z,26.52
2023-10-20T07:35:44.149Z,25.63
2023-10-20T07:38:10.998Z,24.55
2023-10-20T07:40:38.861Z,27.67
2023-10-20T07:43:08.121Z,24.92
2023-10-20T07:45:42.837Z,26.30
2023-10-20T07:48:11.130Z,23.50
2023-10-20T07:50:38.155Z,25.23
2023-10-20T07:53:05.136Z,26.02
2023-10-20T07:55:31.830Z,25.00
2023-10-20T07:57:58.439Z,22.42
2023-10-20T08:00:25.442Z,22.42
2023-10-20T08:02:54.954Z,24.35
2023-10-20T08:05:26.302Z,22.77
2023-10-20T08:07:54.388Z,25.20
2023-10-20T08:10:22.883Z,22.00
2023-10-20T08:12:50.401Z,22.15
2023-10-20T08:15:17.513Z,22.80
2023-10-20T08:17:46.979Z,21.75
2023-10-20T08:20:14.263Z,23.35
2023-10-20T08:22:41.761Z,21.80
2023-10-20T08:25:10.025Z,22.55
2023-10-20T08:27:37.751Z,21.58
2023-10-20T08:30:06.100Z,20.67
2023-10-20T08:32:32.972Z,20.05
2023-10-20T08:35:00.096Z,17.98
2023-10-20T08:37:27.134Z,22.98
2023-10-20T08:39:55.494Z,17.33
2023-10-20T08:42:25.707Z,20.05
2023-10-20T08:44:52.632Z,19.33
2023-10-20T08:47:27.176Z,22.08
2023-10-20T08:49:54.213Z,20.60
2023-10-20T08:52:20.933Z,19.77
2023-10-20T08:54:49.245Z,21.90
2023-10-20T08:57:15.966Z,19.77
2023-10-20T08:59:52.109Z,23.92
2023-10-20T09:02:20.200Z,21.60
2023-10-20T09:04:53.021Z,21.27
2023-10-20T09:07:22.717Z,17.75
2023-10-20T09:09:50.395Z,18.60
2023-10-20T09:12:17.122Z,17.55
2023-10-20T09:14:43.808Z,18.88
2023-10-20T09:17:21.307Z,19.48
2023-10-20T09:19:48.076Z,20.45
2023-10-20T09:22:14.871Z,20.95
2023-10-20T09:24:42.527Z,20.95
2023-10-20T09:27:09.674Z,21.00
2023-10-20T09:29:38.541Z,25.67
2023-10-20T09:32:06.295Z,24.35
2023-10-20T09:34:32.951Z,24.65
2023-10-20T09:37:01.900Z,22.55
2023-10-20T09:39:44.018Z,26.58
2023-10-20T09:42:14.881Z,21.20
2023-10-20T09:44:59.490Z,21.25
2023-10-20T09:47:30.666Z,26.88
2023-10-20T09:49:58.376Z,19.05
2023-10-20T09:52:25.506Z,23.33
2023-10-20T09:54:54.361Z,22.48
2023-10-20T09:57:22.181Z,21.15
2023-10-20T09:59:54.125Z,20.08
2023-10-20T10:02:31.948Z,22.65
2023-10-20T10:05:02.694Z,22.80
2023-10-20T10:07:35.815Z,22.27
2023-10-20T10:10:06.058Z,21.45
2023-10-20T10:12:34.112Z,21.60
2023-10-20T10:15:12.205Z,21.75
2023-10-20T10:17:47.433Z,22.10
2023-10-20T10:20:52.674Z,23.70
2023-10-20T10:23:33.136Z,20.85
2023-10-20T10:26:00.454Z,20.08
2023-10-20T10:28:27.307Z,22.98
2023-10-20T10:30:54.143Z,22.58
2023-10-20T10:33:25.135Z,20.77
2023-10-20T10:36:05.071Z,20.67
2023-10-20T10:38:43.395Z,23.65
2023-10-20T10:41:11.044Z,23.88
2023-10-20T10:43:38.330Z,25.33
2023-10-20T10:46:05.314Z,24.20
2023-10-20T10:48:35.492Z,20.35
2023-10-20T10:51:05.712Z,23.98
2023-10-20T10:53:32.615Z,29.67
2023-10-20T10:56:00.048Z,23.08
2023-10-20T10:58:26.873Z,24.40
2023-10-20T11:00:55.839Z,24.25
2023-10-20T11:03:25.819Z,22.20
2023-10-20T11:05:53.514Z,25.58
2023-10-20T11:08:20.983Z,26.55
2023-10-20T11:10:50.667Z,22.00
2023-10-20T11:13:21.142Z,21.17
2023-10-20T11:15:49.006Z,22.38
2023-10-20T11:18:18.148Z,20.92
2023-10-20T11:20:48.710Z,24.50
2023-10-20T11:23:20.467Z,19.85
2023-10-20T11:25:49.876Z,23.40
2023-10-20T11:28:17.129Z,21.80
2023-10-20T11:30:46.442Z,24.92
2023-10-20T11:33:16.464Z,23.58
2023-10-20T11:35:47.426Z,23.98
2023-10-20T11:38:17.608Z,22.38
2023-10-20T11:40:48.611Z,19.13
2023-10-20T11:43:15.506Z,20.58
2023-10-20T11:45:42.205Z,24.52
2023-10-20T11:48:11.847Z,23.17
2023-10-20T11:50:38.719Z,22.95
2023-10-20T11:53:06.719Z,23.38
2023-10-20T11:55:33.587Z,21.13
2023-10-20T11:58:01.918Z,24.95
2023-10-20T12:00:31.222Z,22.92
2023-10-20T12:02:58.117Z,22.85
2023-10-20T12:05:24.912Z,22.15
2023-10-20T12:07:51.951Z,22.42
2023-10-20T12:10:18.826Z,23.08
2023-10-20T12:12:45.440Z,27.20
2023-10-20T12:15:13.195Z,24.80
2023-10-20T12:17:42.432Z,23.17
2023-10-20T12:20:11.038Z,27.35
2023-10-20T12:22:37.827Z,26.05
2023-10-20T12:25:05.269Z,23.98
2023-10-20T12:27:32.421Z,22.98
2023-10-20T12:29:59.979Z,24.70
2023-10-20T12:32:28.344Z,22.83
2023-10-20T12:34:55.607Z,21.38
2023-10-20T12:37:22.284Z,23.73
2023-10-20T12:39:49.339Z,28.10
2023-10-20T12:42:16.012Z,24.08
2023-10-20T12:44:42.637Z,22.08
2023-10-20T12:47:09.237Z,24.25
2023-10-20T12:49:36.012Z,27.45
2023-10-20T12:52:04.143Z,19.42
2023-10-20T12:54:31.161Z,20.92
2023-10-20T12:57:00.103Z,23.35
2023-10-20T12:59:26.988Z,22.52
2023-10-20T13:01:54.389Z,24.95
2023-10-20T13:04:21.353Z,21.00
2023-10-20T13:06:59.307Z,24.63
2023-10-20T13:09:27.955Z,21.83
2023-10-20T13:11:57.548Z,19.48
2023-10-20T13:14:24.658Z,20.83
2023-10-20T13:16:51.867Z,21.15
2023-10-20T13:19:19.410Z,20.67
2023-10-20T13:21:46.241Z,21.02
2023-10-20T13:24:13.082Z,23.67
2023-10-20T13:26:39.902Z,22.25
2023-10-20T13:29:07.256Z,20.23
2023-10-20T13:31:35.134Z,23.48
2023-10-20T13:34:03.698Z,22.90
2023-10-20T13:36:30.737Z,22.00
2023-10-20T13:38:57.617Z,20.08
2023-10-20T13:41:25.004Z,21.95
2023-10-20T13:43:52.877Z,24.52
2023-10-20T13:46:20.058Z,22.23
2023-10-20T13:48:46.876Z,19.65
2023-10-20T13:51:13.668Z,23.15
2023-10-20T13:53:40.273Z,21.25
2023-10-20T13:56:07.105Z,18.92
2023-10-20T13:58:34.356Z,20.95
2023-10-20T14:01:00.976Z,24.20
2023-10-20T14:03:28.108Z,21.35
2023-10-20T14:05:56.221Z,18.25
2023-10-20T14:08:24.266Z,19.92
2023-10-20T14:10:51.419Z,20.83
2023-10-20T14:13:18.504Z,19.13
2023-10-20T14:15:45.847Z,22.08
2023-10-20T14:18:13.197Z,22.33
2023-10-20T14:20:40.588Z,20.20
2023-10-20T14:23:08.873Z,18.48
2023-10-20T14:25:36.305Z,21.30
2023-10-20T14:28:03.065Z,21.60
2023-10-20T14:30:29.727Z,19.08
2023-10-20T14:32:56.476Z,17.50
2023-10-20T14:35:23.658Z,16.10
2023-10-20T14:37:50.769Z,19.30
2023-10-20T14:40:17.613Z,21.98
2023-10-20T14:42:44.782Z,18.27
2023-10-20T14:45:12.829Z,15.23
2023-10-20T14:47:39.825Z,17.77
2023-10-20T14:50:07.231Z,16.23
2023-10-20T14:52:33.944Z,17.08
2023-10-20T14:55:00.671Z,18.65
2023-10-20T14:57:29.286Z,15.85
2023-10-20T14:59:57.215Z,17.10
2023-10-20T15:02:31.949Z,19.27
2023-10-20T15:05:02.661Z,15.73
2023-10-20T15:07:29.786Z,18.05
2023-10-20T15:09:56.465Z,19.92
2023-10-20T15:12:23.224Z,16.35
2023-10-20T15:14:49.965Z,18.73
2023-10-20T15:17:16.595Z,22.38
2023-10-20T15:19:43.529Z,18.05
2023-10-20T15:22:10.698Z,19.30
2023-10-20T15:24:37.401Z,18.52
2023-10-20T15:27:18.099Z,16.42
2023-10-20T15:29:46.989Z,16.67
2023-10-20T15:32:16.621Z,19.05
2023-10-20T15:34:43.523Z,17.70
2023-10-20T15:37:10.716Z,14.15
2023-10-20T15:39:49.336Z,17.35
2023-10-20T15:42:22.656Z,17.38
2023-10-20T15:44:49.568Z,19.02
2023-10-20T15:47:22.841Z,14.88
2023-10-20T15:49:58.860Z,15.77
2023-10-20T15:52:25.982Z,19.42
2023-10-20T15:54:53.732Z,14.80
2023-10-20T15:57:20.467Z,16.35
2023-10-20T15:59:47.214Z,17.42
2023-10-20T16:02:14.547Z,15.40
2023-10-20T16:04:41.279Z,17.63
2023-10-20T16:07:07.951Z,21.00
2023-10-20T16:09:35.056Z,18.00
2023-10-20T16:12:05.174Z,14.07
2023-10-20T16:14:31.874Z,14.88
2023-10-20T16:16:58.637Z,13.93
2023-10-20T16:19:25.394Z,16.83
2023-10-20T16:21:52.762Z,16.83
2023-10-20T16:24:19.796Z,17.63
2023-10-20T16:26:46.893Z,17.55
2023-10-20T16:29:16.255Z,21.10
2023-10-20T16:31:49.193Z,18.23
2023-10-20T16:34:16.307Z,17.80
2023-10-20T16:36:43.282Z,15.40
2023-10-20T16:39:13.483Z,21.27
2023-10-20T16:41:42.880Z,15.77
2023-10-20T16:44:09.936Z,17.00
2023-10-20T16:46:41.766Z,19.15
2023-10-20T16:49:09.204Z,16.77
2023-10-20T16:51:39.681Z,16.52
2023-10-20T16:54:06.607Z,21.52
2023-10-20T16:56:33.413Z,21.33
2023-10-20T16:59:00.805Z,16.83
2023-10-20T17:01:30.337Z,21.50
2023-10-20T17:03:57.351Z,16.63
2023-10-20T17:06:26.091Z,20.17
2023-10-20T17:08:52.794Z,16.23
2023-10-20T17:11:21.147Z,17.67
2023-10-20T17:13:48.479Z,21.15
2023-10-20T17:16:16.465Z,15.77
2023-10-20T17:18:43.466Z,19.65
2023-10-20T17:21:10.414Z,17.77
2023-10-20T17:23:37.190Z,16.23
2023-10-20T17:26:05.868Z,21.02
2023-10-20T17:28:33.194Z,16.58
2023-10-20T17:31:03.582Z,21.50
2023-10-20T17:33:30.527Z,21.60
2023-10-20T17:36:05.816Z,21.13
2023-10-20T17:38:33.663Z,20.40
2023-10-20T17:41:05.977Z,15.98
2023-10-20T17:43:33.632Z,21.92
2023-10-20T17:46:05.673Z,19.42
2023-10-20T17:48:32.948Z,20.92
2023-10-20T17:51:03.933Z,19.60
2023-10-20T17:53:32.401Z,19.73
2023-10-20T17:56:02.885Z,18.98
2023-10-20T17:58:31.181Z,23.00
2023-10-20T18:01:08.601Z,16.48
2023-10-20T18:03:43.911Z,21.60
2023-10-20T18:06:12.308Z,22.90
2023-10-20T18:08:44.204Z,17.80
2023-10-20T18:11:12.930Z,17.13
2023-10-20T18:13:41.394Z,19.40
2023-10-20T18:16:12.503Z,21.75
2023-10-20T18:18:40.893Z,20.75
2023-10-20T18:21:08.620Z,17.63
2023-10-20T18:23:35.874Z,19.42
2023-10-20T18:26:04.454Z,17.25
2023-10-20T18:28:31.987Z,15.35
2023-10-20T18:30:59.313Z,18.70
2023-10-20T18:33:29.850Z,22.13
2023-10-20T18:35:57.200Z,19.88
2023-10-20T18:38:24.015Z,16.70
2023-10-20T18:40:50.675Z,22.05
2023-10-20T18:43:17.742Z,20.55
2023-10-20T18:45:53.084Z,18.85
2023-10-20T18:48:20.099Z,21.67
2023-10-20T18:50:47.320Z,24.17
2023-10-20T18:53:14.064Z,23.33
2023-10-20T18:55:40.819Z,22.95
2023-10-20T18:58:07.653Z,21.63
2023-10-20T19:00:34.415Z,24.55
2023-10-20T19:03:01.267Z,20.73
2023-10-20T19:05:28.173Z,21.92
2023-10-20T19:07:55.021Z,24.02
2023-10-20T19:10:21.750Z,22.20
2023-10-20T19:12:49.312Z,26.38
2023-10-20T19:15:17.881Z,21.20
2023-10-20T19:17:44.758Z,22.20
2023-10-20T19:20:14.892Z,24.52
2023-10-20T19:22:42.117Z,28.08
2023-10-20T19:25:09.830Z,22.27
2023-10-20T19:27:36.624Z,24.13
2023-10-20T19:30:03.662Z,23.85
2023-10-20T19:32:32.686Z,23.98
2023-10-20T19:35:01.871Z,24.52
2023-10-20T19:37:28.772Z,24.30
2023-10-20T19:39:55.577Z,26.20
2023-10-20T19:42:22.406Z,25.40
2023-10-20T19:44:50.394Z,28.48
2023-10-20T19:47:17.201Z,21.95
2023-10-20T19:49:44.206Z,22.27
2023-10-20T19:52:11.054Z,22.77
2023-10-20T19:54:37.912Z,24.95
2023-10-20T19:57:04.928Z,28.27
2023-10-20T19:59:31.629Z,23.67
2023-10-20T20:01:58.480Z,26.23
2023-10-20T20:04:28.129Z,26.10
2023-10-20T20:06:54.965Z,25.08
2023-10-20T20:09:21.719Z,28.17
2023-10-20T20:11:49.943Z,25.67
2023-10-20T20:14:18.557Z,27.25
2023-10-20T20:17:04.518Z,26.13
2023-10-20T20:19:33.907Z,32.90
2023-10-20T20:22:01.096Z,26.88
2023-10-20T20:24:30.362Z,28.75
2023-10-20T20:26:58.637Z,31.60
2023-10-20T20:29:25.661Z,29.30
2023-10-20T20:31:52.376Z,28.50
2023-10-20T20:34:19.371Z,29.63
2023-10-20T20:36:49.063Z,26.65
2023-10-20T20:39:15.826Z,24.73
2023-10-20T20:41:42.787Z,26.63
2023-10-20T20:44:09.507Z,30.65
2023-10-20T20:46:36.380Z,26.15
2023-10-20T20:49:04.007Z,27.73
2023-10-20T20:51:32.867Z,27.00
2023-10-20T20:54:04.099Z,32.25
2023-10-20T20:56:31.063Z,31.20
2023-10-20T20:58:57.777Z,28.33
2023-10-20T21:01:24.771Z,30.60
2023-10-20T21:03:51.835Z,25.88
2023-10-20T21:06:20.816Z,27.13
2023-10-20T21:08:47.977Z,27.77
2023-10-20T21:11:15.952Z,26.40
2023-10-20T21:13:43.172Z,29.92
2023-10-20T21:16:11.975Z,29.38
2023-10-20T21:18:39.273Z,26.02
2023-10-20T21:21:14.896Z,26.85
2023-10-20T21:23:45.335Z,32.95
2023-10-20T21:26:15.633Z,29.17
2023-10-20T21:28:42.588Z,29.33
2023-10-20T21:31:09.690Z,26.80
2023-10-20T21:33:36.550Z,28.13
2023-10-20T21:36:04.326Z,31.75
2023-10-20T21:38:32.667Z,26.75
2023-10-20T21:40:59.586Z,28.10
2023-10-20T21:43:26.303Z,31.33
2023-10-20T21:45:59.420Z,29.98
2023-10-20T21:48:27.258Z,26.17
2023-10-20T21:51:05.201Z,25.30
2023-10-20T21:53:35.552Z,26.58
2023-10-20T21:56:04.848Z,26.40
2023-10-20T21:58:32.457Z,27.27
2023-10-20T22:01:00.071Z,27.20
2023-10-20T22:03:28.318Z,27.00
2023-10-20T22:05:55.754Z,30.42
2023-10-20T22:08:25.464Z,31.17
2023-10-20T22:10:52.370Z,29.42
2023-10-20T22:13:19.352Z,28.27
2023-10-20T22:15:49.369Z,25.23
2023-10-20T22:18:16.200Z,29.40
2023-10-20T22:20:44.072Z,27.17
2023-10-20T22:23:12.402Z,29.90
2023-10-20T22:25:42.416Z,28.00
2023-10-20T22:28:09.154Z,30.65
2023-10-20T22:30:35.965Z,27.98
2023-10-20T22:33:03.692Z,27.35
2023-10-20T22:35:31.363Z,26.35
2023-10-20T22:37:58.316Z,27.83
2023-10-20T22:40:25.191Z,24.98
2023-10-20T22:42:52.001Z,28.10
2023-10-20T22:45:23.975Z,29.48
2023-10-20T22:47:54.360Z,22.85
2023-10-20T22:50:21.346Z,29.13
2023-10-20T22:52:48.970Z,26.23
2023-10-20T22:55:15.712Z,28.55
2023-10-20T22:57:42.426Z,28.45
2023-10-20T23:00:10.869Z,26.10
2023-10-20T23:02:39.509Z,26.10
2023-10-20T23:05:08.046Z,24.60
2023-10-20T23:07:35.793Z,20.88
2023-10-20T23:10:04.641Z,29.95
2023-10-20T23:12:32.958Z,25.45
2023-10-20T23:14:59.992Z,26.15
2023-10-20T23:17:27.415Z,27.98
2023-10-20T23:19:55.796Z,30.10
2023-10-20T23:22:22.461Z,29.88
2023-10-20T23:24:49.184Z,28.77
2023-10-20T23:27:15.830Z,28.92
2023-10-20T23:29:42.550Z,30.88
2023-10-20T23:32:09.936Z,26.00
2023-10-20T23:34:37.063Z,26.38
2023-10-20T23:37:04.460Z,25.35
2023-10-20T23:39:34.010Z,25.83
2023-10-20T23:42:01.724Z,24.90
2023-10-20T23:44:29.343Z,31.15
2023-10-20T23:46:56.579Z,22.63
2023-10-20T23:49:23.899Z,21.50
2023-10-20T23:51:51.632Z,25.30
2023-10-20T23:54:18.404Z,18.55
2023-10-20T23:56:45.050Z,19.48
2023-10-20T23:59:11.699Z,24.58
